AirNav   Air Wisconsin Up To $57,000 Bonus
 
 1692 users online  

MO12 St Lukes Hospital West Heliport
Chesterfield, Missouri, USA

GOING TO CHESTERFIELD?


FAA INFORMATION EFFECTIVE 17 JUNE 2021

Location

FAA Identifier: MO12
Lat/Long: 38-39-01.0300N 090-30-11.5500W
38-39.017167N 090-30.192500W
38.6502861,-90.5032083
(estimated)
Elevation: 505 ft. / 154 m (estimated)
Variation: 02E (1985)
From city: 8 miles W of CHESTERFIELD, MO
Time zone: UTC -5 (UTC -6 during Standard Time)
Zip code: 63017

Heliport Operations

Heliport use: Private use, MEDICAL USE.
Activation date: 04/1991
Control tower: no
ARTCC: KANSAS CITY CENTER
FSS: SAINT LOUIS FLIGHT SERVICE STATION
Attendance: CONTINUOUS
Segmented circle: no
Lights: FOR PERIMETER LGTS CALL 314-434-1500.

Heliport Communications

WX ASOS at SUS (7 nm W): 134.8 (314-890-7255)
WX ASOS at STL (9 nm NE): PHONE 314-890-4790
WX ASOS at CPS (17 nm E): PHONE 618-332-0001
WX ASOS at SET (17 nm N): 118.075 (636-250-4590)

Nearby radio navigation aids

VOR radial/distance  VOR name  Freq  Var
STLr183/12.7ST LOUIS VORTAC117.4001E
FTZr092/22.1FORISTELL VORTAC110.8005E
TOYr255/27.9TROY VORTAC116.0004E

 
NDB name  Hdg/Dist  Freq  Var  ID
EAVES129/2.622701WFZ ..-. --..
SNOOP088/12.432601WSU ... ..-
CIVIC MEMORIAL236/25.526301WCVM -.-. ...- --

Heliport Services

Runway Information

Helipad H1

Dimensions: 35 x 35 ft. / 11 x 11 m
Surface: asphalt
Runway edge lights: PERI
Operational restrictions: APCH AND DEP PATH FROM 040 TO 170 DEGREES AND FROM 270 TO 300 DEGREES.
Latitude: 38-39.017167N
Longitude: 090-30.192500W
Elevation: 505.0 ft.
Traffic pattern: leftleft

Heliport Ownership and Management from official FAA records

Ownership: Privately-owned
Owner: ST LUKES HOSPITAL & DEVELOP C
232 SOUTH WOODSMILL ROAD
CHESTERFIELD, MO 63017
Phone 314-434-1500
EXT. 4452
Manager: RON BIRDSONG
232 SOUTH WOODMILL ROAD
CHESTERFIELD, MO 63017
Phone 314-205-6166

Heliport Operational Statistics

Aircraft based on the field: 1
Helicopters: 1
    

Additional Remarks

OWNER DESIRES ARPT NOT BE CHARTED.
FOR CD CTC ST LOUIS APCH AT 314-890-1018.

Instrument Procedures

There are no published instrument procedures at MO12.

Some nearby airports with instrument procedures:

1H0 - Creve Coeur Airport (5 nm N)
KSUS - Spirit of St Louis Airport (7 nm W)
KSTL - St Louis Lambert International Airport (9 nm NE)
KCPS - St Louis Downtown Airport (17 nm E)
KSET - St Charles County Smartt Airport (17 nm N)
 
Loc | Ops | Rwys | IFR | FBO | Links
Com | Nav | Svcs | Stats | Notes
Area around MO12 (St Lukes Hospital West Heliport)
 
Road maps at: MapQuest Bing Google
 
Aerial photo
No photo
 
Sectional chart

 
Airport distance calculator
Flying to St Lukes Hospital West Heliport? Find the distance to fly.

From to MO12

Sunrise and sunset
Times for 24-Jun-2021
 Local
(UTC-5)
 Zulu
(UTC)
Morning civil twilight05:0710:07
Sunrise05:3910:39
Sunset20:2901:29
Evening civil twilight21:0102:01

Current date and time
Zulu (UTC)  24-Jun-2021 19:58:54
Local (UTC-5)  24-Jun-2021 14:58:54
 
METAR
KSUS 
7nm W 
241954Z 19005KT 10SM BKN080 BKN095 OVC110 26/22 A2993 RMK AO2 SLP126 T02610222
KSTL 
9nm NE 
241951Z 17011G20KT 10SM -RA FEW050 SCT070 OVC110 28/22 A2994 RMK AO2 RAB14 SLP126 P0000 T02780217
KSET 
17nm N 
241954Z AUTO 27008KT 9SM SCT100 BKN120 27/21 A2999 RMK AO2 RAB09E18 PRESRR SLP149 P0000 T02720211
KCPS 
17nm E 
241953Z 16008KT 10SM FEW031 OVC120 28/23 A2995 RMK AO2 SLP137 T02780228
TAF
KSUS 
7nm W 
241723Z 2418/2518 20008KT P6SM VCTS OVC050CB TEMPO 2418/2420 3SM TSRA FM242100 18012KT P6SM BKN050 FM250700 19009KT 4SM SHRA BR VCTS OVC040CB FM251300 19009KT P6SM BKN035
KSTL 
9nm NE 
241723Z 2418/2524 19008KT P6SM VCTS OVC050CB TEMPO 2418/2420 3SM TSRA FM242100 18012G18KT P6SM BKN050 FM250700 19011KT 4SM SHRA BR VCTS OVC040CB FM251300 19010KT P6SM BKN035 FM252000 20011KT P6SM SHRA VCTS BKN045CB
KCPS 
17nm E 
241723Z 2418/2518 19008KT P6SM OVC050 FM241900 19009KT P6SM VCTS OVC050CB FM242100 18011G18KT P6SM BKN050 FM250800 19010KT 4SM SHRA BR VCTS OVC040CB FM251400 19009KT P6SM BKN035
NOTAMs
Click for the latest NOTAMs
NOTAMs are issued by the DoD/FAA and will open in a separate window not controlled by AirNav.

 

 
 

Would you like to see your business listed on this page?

 If your business provides an interesting product or service to pilots, flight crews, aircraft, or users of the St Lukes Hospital West Heliport, you should consider listing it here.  To start the listing process, click on the button below
 
Add a business
 

Other Pages about St Lukes Hospital West Heliport

Update a link
 
Copyright © AirNav, LLC. All rights reserved. Privacy Policy  Contact